TED STEVENS ANCHORAGE INTL

PANC (ANC)
Anchorage, Alaska
Towered

Vatsim Metar:
PANC 280353Z 03005KT 10SM FEW003 OVC130 M10/M13 A2987 RMK AO2 SLP118 T11001128

No ATC Online

Traffic

Inbound:
Ident
Type
Name
ETA
Phase
PAC768
H/B748
Matt T EGKK
09:05 Z
Cruse

Outbound:
Ident
Type
Name
Destination
Phase
AC971
A320/L
Daniel Laird CYVR
CYVR
Climb
AIB288
A321/X
Chunghsien Kao RCTP
KORD
Climb